Colfax, Washington
Current Conditions -  °F | °C
As of 10:53 PM on Friday 24 Oct 2014 (Local Time) from KPUW Reporting Station
Clear Clear  
Wind Chill:   Ceiling: Unl
Heat Index:   Visibility: 10mi
Dew Point:   Wind: 12mph
Humidity: 83%   Direction: 110°ESE
Pressure: 29.93"   Gusts: NA
Location:  46.88°N, 117.36°W
Report Text: KPUW 250553Z AUTO 11010KT 10SM CLR 09/06 A2993 RMK AO2 SLP139 60006 T00890061 10111 20089 56022
Loading
Personal Weather Stations






























Interactive Weather Map
Tropical Storm Tracking
New forecast layout! Learn more

10-Day Weather Forecast

Advertisements
Track Severe Weather on mobile